AVA9211 SKRG-SKCL
Flight info
| Callsign | AVA9211 |
|---|---|
| Flight time | 0h 37m |
| Altitude | 20000 |
| Route | ISVO2B ISVON W3 ULQ ULQ4E |
| Aircraft | A320/M-SDE3FGHIRWY/LB1 |
Departure
| Time | 2026-04-21 05:26 |
|---|---|
| Airport | Jose Maria Córdova International Airport (SKRG) |
Arrival
| Time | 2026-04-21 06:04 |
|---|---|
| Airport | Alfonso Bonilla Aragon International Airport (SKCL) |
| Time | Latitude | Longitude | Altitude | Speed | Heading |
|---|---|---|---|---|---|
| 2026-04-21 05:12 | 6.16964 | -75.42800 | 7045 ft | 0 kts | 340° |
| 2026-04-21 05:16 | 6.16958 | -75.42798 | 7018 ft | 2 kts | 340° |
| 2026-04-21 05:16 | 6.16943 | -75.42793 | 7019 ft | 2 kts | 342° |
| 2026-04-21 05:17 | 6.16925 | -75.42789 | 7018 ft | 2 kts | 5° |
| 2026-04-21 05:17 | 6.16914 | -75.42791 | 7018 ft | 2 kts | 46° |
| 2026-04-21 05:17 | 6.16908 | -75.42808 | 7022 ft | 2 kts | 76° |
| 2026-04-21 05:17 | 6.16906 | -75.42814 | 7018 ft | 0 kts | 72° |
| 2026-04-21 05:19 | 6.16907 | -75.42812 | 7018 ft | 1 kts | 72° |
| 2026-04-21 05:19 | 6.16914 | -75.42792 | 7018 ft | 4 kts | 70° |
| 2026-04-21 05:19 | 6.16922 | -75.42770 | 7018 ft | 6 kts | 70° |
| 2026-04-21 05:19 | 6.16948 | -75.42725 | 7021 ft | 8 kts | 52° |
| 2026-04-21 05:20 | 6.16993 | -75.42682 | 7018 ft | 10 kts | 37° |
| 2026-04-21 05:20 | 6.17053 | -75.42637 | 7019 ft | 12 kts | 36° |
| 2026-04-21 05:20 | 6.17128 | -75.42618 | 7017 ft | 11 kts | 1° |
| 2026-04-21 05:20 | 6.17212 | -75.42617 | 7020 ft | 12 kts | 360° |
| 2026-04-21 05:21 | 6.17302 | -75.42619 | 7018 ft | 13 kts | 356° |
| 2026-04-21 05:21 | 6.17398 | -75.42611 | 7019 ft | 14 kts | 20° |
| 2026-04-21 05:21 | 6.17499 | -75.42599 | 7017 ft | 15 kts | 1° |
| 2026-04-21 05:21 | 6.17595 | -75.42597 | 7019 ft | 11 kts | 1° |
| 2026-04-21 05:22 | 6.17661 | -75.42596 | 7019 ft | 8 kts | 360° |
| 2026-04-21 05:22 | 6.17729 | -75.42598 | 7020 ft | 10 kts | 359° |
| 2026-04-21 05:22 | 6.17798 | -75.42597 | 7020 ft | 11 kts | 2° |
| 2026-04-21 05:22 | 6.17855 | -75.42556 | 7024 ft | 10 kts | 52° |
| 2026-04-21 05:23 | 6.17902 | -75.42510 | 7027 ft | 10 kts | 33° |
| 2026-04-21 05:23 | 6.17980 | -75.42493 | 7031 ft | 12 kts | 2° |
| 2026-04-21 05:23 | 6.18018 | -75.42436 | 7033 ft | 9 kts | 90° |
| 2026-04-21 05:23 | 6.18017 | -75.42422 | 7034 ft | 0 kts | 91° |
| 2026-04-21 05:25 | 6.18017 | -75.42416 | 7034 ft | 5 kts | 91° |
| 2026-04-21 05:25 | 6.18010 | -75.42341 | 7033 ft | 13 kts | 118° |
| 2026-04-21 05:25 | 6.17962 | -75.42322 | 7031 ft | 0 kts | 180° |
| 2026-04-21 05:25 | 6.17922 | -75.42322 | 7030 ft | 28 kts | 179° |
| 2026-04-21 05:26 | 6.17429 | -75.42318 | 7022 ft | 110 kts | 180° |
| 2026-04-21 05:26 | 6.16428 | -75.42306 | 6987 ft | 178 kts | 178° |
| 2026-04-21 05:26 | 6.15043 | -75.42269 | 7413 ft | 209 kts | 179° |
| 2026-04-21 05:26 | 6.13512 | -75.42251 | 8180 ft | 225 kts | 180° |
| 2026-04-21 05:27 | 6.11954 | -75.42260 | 9339 ft | 214 kts | 181° |
| 2026-04-21 05:27 | 6.10470 | -75.42271 | 10046 ft | 211 kts | 181° |
| 2026-04-21 05:27 | 6.08972 | -75.42280 | 10423 ft | 220 kts | 181° |
| 2026-04-21 05:27 | 6.07932 | -75.42285 | 10724 ft | 222 kts | 181° |
| 2026-04-21 05:28 | 6.06404 | -75.42562 | 11210 ft | 222 kts | 206° |
| 2026-04-21 05:28 | 6.05104 | -75.43480 | 11529 ft | 232 kts | 221° |
| 2026-04-21 05:28 | 6.03845 | -75.44575 | 11756 ft | 248 kts | 221° |
| 2026-04-21 05:28 | 6.02491 | -75.45746 | 11952 ft | 268 kts | 221° |
| 2026-04-21 05:29 | 6.01022 | -75.47011 | 12293 ft | 284 kts | 221° |
| 2026-04-21 05:29 | 5.99435 | -75.48372 | 12627 ft | 301 kts | 221° |
| 2026-04-21 05:29 | 5.97792 | -75.49774 | 12941 ft | 318 kts | 221° |
| 2026-04-21 05:29 | 5.96060 | -75.51249 | 13231 ft | 335 kts | 221° |
| 2026-04-21 05:30 | 5.94168 | -75.52752 | 13536 ft | 349 kts | 210° |
| 2026-04-21 05:30 | 5.91884 | -75.53652 | 14064 ft | 356 kts | 196° |
| 2026-04-21 05:30 | 5.89453 | -75.54195 | 14589 ft | 361 kts | 190° |
| 2026-04-21 05:30 | 5.86923 | -75.54563 | 15151 ft | 364 kts | 187° |
| 2026-04-21 05:31 | 5.84395 | -75.54863 | 15697 ft | 367 kts | 187° |
| 2026-04-21 05:31 | 5.81849 | -75.55167 | 16239 ft | 370 kts | 187° |
| 2026-04-21 05:31 | 5.79286 | -75.55506 | 16792 ft | 373 kts | 188° |
| 2026-04-21 05:31 | 5.76711 | -75.55886 | 17340 ft | 376 kts | 189° |
| 2026-04-21 05:32 | 5.74117 | -75.56302 | 17887 ft | 379 kts | 189° |
| 2026-04-21 05:32 | 5.71474 | -75.56745 | 18433 ft | 381 kts | 190° |
| 2026-04-21 05:32 | 5.68814 | -75.57197 | 18902 ft | 384 kts | 190° |
| 2026-04-21 05:32 | 5.66164 | -75.57644 | 19366 ft | 387 kts | 189° |
| 2026-04-21 05:33 | 5.63465 | -75.58094 | 19847 ft | 389 kts | 189° |
| 2026-04-21 05:33 | 5.60818 | -75.58533 | 20072 ft | 390 kts | 189° |
| 2026-04-21 05:33 | 5.58162 | -75.58972 | 20129 ft | 379 kts | 189° |
| 2026-04-21 05:33 | 5.55550 | -75.59401 | 20144 ft | 374 kts | 189° |
| 2026-04-21 05:34 | 5.52983 | -75.59821 | 20148 ft | 374 kts | 189° |
| 2026-04-21 05:34 | 5.50413 | -75.60240 | 20145 ft | 374 kts | 189° |
| 2026-04-21 05:34 | 5.47851 | -75.60660 | 20154 ft | 374 kts | 189° |
| 2026-04-21 05:34 | 5.45282 | -75.61082 | 20153 ft | 374 kts | 189° |
| 2026-04-21 05:35 | 5.42682 | -75.61509 | 20156 ft | 374 kts | 189° |
| 2026-04-21 05:35 | 5.40134 | -75.62004 | 20157 ft | 373 kts | 196° |
| 2026-04-21 05:35 | 5.37672 | -75.62833 | 20160 ft | 373 kts | 199° |
| 2026-04-21 05:35 | 5.35220 | -75.63696 | 20159 ft | 373 kts | 199° |
| 2026-04-21 05:36 | 5.32773 | -75.64552 | 20172 ft | 373 kts | 199° |
| 2026-04-21 05:36 | 5.30320 | -75.65409 | 20184 ft | 373 kts | 199° |
| 2026-04-21 05:36 | 5.27871 | -75.66263 | 20193 ft | 373 kts | 199° |
| 2026-04-21 05:36 | 5.25415 | -75.67119 | 20205 ft | 373 kts | 199° |
| 2026-04-21 05:37 | 5.22932 | -75.67986 | 20222 ft | 373 kts | 199° |
| 2026-04-21 05:37 | 5.20481 | -75.68839 | 20227 ft | 373 kts | 199° |
| 2026-04-21 05:37 | 5.18028 | -75.69689 | 20236 ft | 373 kts | 199° |
| 2026-04-21 05:37 | 5.16363 | -75.70267 | 20236 ft | 373 kts | 199° |
| 2026-04-21 05:38 | 5.13813 | -75.71154 | 20236 ft | 373 kts | 199° |
| 2026-04-21 05:38 | 5.11363 | -75.72011 | 20243 ft | 373 kts | 199° |
| 2026-04-21 05:38 | 5.08913 | -75.72870 | 20236 ft | 373 kts | 199° |
| 2026-04-21 05:38 | 5.06465 | -75.73730 | 20166 ft | 373 kts | 199° |
| 2026-04-21 05:39 | 5.04012 | -75.74587 | 20162 ft | 373 kts | 199° |
| 2026-04-21 05:39 | 5.01565 | -75.75442 | 20161 ft | 373 kts | 199° |
| 2026-04-21 05:39 | 4.99113 | -75.76300 | 20163 ft | 373 kts | 199° |
| 2026-04-21 05:39 | 4.96631 | -75.77166 | 20165 ft | 373 kts | 199° |
| 2026-04-21 05:40 | 4.94147 | -75.78032 | 20164 ft | 373 kts | 199° |
| 2026-04-21 05:40 | 4.92522 | -75.78599 | 20164 ft | 373 kts | 199° |
| 2026-04-21 05:40 | 4.90040 | -75.79466 | 20167 ft | 373 kts | 199° |
| 2026-04-21 05:40 | 4.87590 | -75.80322 | 20161 ft | 373 kts | 199° |
| 2026-04-21 05:41 | 4.85140 | -75.81177 | 20164 ft | 373 kts | 199° |
| 2026-04-21 05:41 | 4.82693 | -75.82029 | 20167 ft | 373 kts | 199° |
| 2026-04-21 05:41 | 4.80206 | -75.82894 | 20169 ft | 373 kts | 199° |
| 2026-04-21 05:41 | 4.77787 | -75.83832 | 20164 ft | 372 kts | 206° |
| 2026-04-21 05:42 | 4.75519 | -75.85078 | 20086 ft | 373 kts | 209° |
| 2026-04-21 05:42 | 4.73254 | -75.86353 | 20087 ft | 373 kts | 209° |
| 2026-04-21 05:42 | 4.70999 | -75.87622 | 20083 ft | 372 kts | 209° |
| 2026-04-21 05:42 | 4.68736 | -75.88890 | 20083 ft | 372 kts | 209° |
| 2026-04-21 05:43 | 4.66472 | -75.90154 | 20090 ft | 372 kts | 209° |
| 2026-04-21 05:43 | 4.64178 | -75.91433 | 20096 ft | 372 kts | 209° |
| 2026-04-21 05:43 | 4.61916 | -75.92695 | 20096 ft | 372 kts | 209° |
| 2026-04-21 05:43 | 4.59652 | -75.93959 | 20105 ft | 372 kts | 209° |
| 2026-04-21 05:44 | 4.57393 | -75.95220 | 20109 ft | 372 kts | 209° |
| 2026-04-21 05:44 | 4.55132 | -75.96482 | 20110 ft | 372 kts | 209° |
| 2026-04-21 05:44 | 4.52871 | -75.97746 | 20144 ft | 372 kts | 209° |
| 2026-04-21 05:44 | 4.50514 | -75.99063 | 20143 ft | 372 kts | 209° |
| 2026-04-21 05:45 | 4.48226 | -76.00343 | 20133 ft | 372 kts | 209° |
| 2026-04-21 05:45 | 4.45964 | -76.01609 | 20136 ft | 372 kts | 209° |
| 2026-04-21 05:45 | 4.43707 | -76.02873 | 20131 ft | 372 kts | 209° |
| 2026-04-21 05:45 | 4.41447 | -76.04144 | 20133 ft | 372 kts | 209° |
| 2026-04-21 05:46 | 4.39192 | -76.05414 | 20140 ft | 372 kts | 209° |
| 2026-04-21 05:46 | 4.36909 | -76.06698 | 20135 ft | 372 kts | 209° |
| 2026-04-21 05:46 | 4.34649 | -76.07966 | 20131 ft | 372 kts | 209° |
| 2026-04-21 05:46 | 4.32391 | -76.09234 | 20133 ft | 372 kts | 209° |
| 2026-04-21 05:47 | 4.30137 | -76.10499 | 20133 ft | 372 kts | 209° |
| 2026-04-21 05:47 | 4.27880 | -76.11766 | 20136 ft | 372 kts | 209° |
| 2026-04-21 05:47 | 4.25626 | -76.13029 | 20142 ft | 372 kts | 209° |
| 2026-04-21 05:47 | 4.23370 | -76.14300 | 20146 ft | 371 kts | 209° |
| 2026-04-21 05:48 | 4.21090 | -76.15593 | 20135 ft | 372 kts | 210° |
| 2026-04-21 05:48 | 4.18817 | -76.16887 | 20140 ft | 372 kts | 210° |
| 2026-04-21 05:48 | 4.16568 | -76.18167 | 20130 ft | 372 kts | 210° |
| 2026-04-21 05:48 | 4.14313 | -76.19449 | 20140 ft | 371 kts | 210° |
| 2026-04-21 05:49 | 4.12091 | -76.20707 | 20126 ft | 371 kts | 209° |
| 2026-04-21 05:49 | 4.09744 | -76.21854 | 20134 ft | 371 kts | 200° |
| 2026-04-21 05:49 | 4.07210 | -76.22517 | 20136 ft | 371 kts | 188° |
| 2026-04-21 05:49 | 4.04609 | -76.22781 | 20122 ft | 372 kts | 185° |
| 2026-04-21 05:50 | 4.02058 | -76.23018 | 19936 ft | 363 kts | 186° |
| 2026-04-21 05:50 | 3.99576 | -76.23255 | 19696 ft | 354 kts | 186° |
| 2026-04-21 05:50 | 3.97149 | -76.23492 | 19413 ft | 348 kts | 186° |
| 2026-04-21 05:50 | 3.94746 | -76.23729 | 19000 ft | 346 kts | 186° |
| 2026-04-21 05:51 | 3.94014 | -76.23801 | 18876 ft | 346 kts | 186° |
| 2026-04-21 05:51 | 3.91592 | -76.24035 | 18441 ft | 346 kts | 186° |
| 2026-04-21 05:51 | 3.89193 | -76.24268 | 17979 ft | 345 kts | 186° |
| 2026-04-21 05:51 | 3.86814 | -76.24499 | 17532 ft | 343 kts | 186° |
| 2026-04-21 05:52 | 3.84400 | -76.24733 | 17009 ft | 344 kts | 186° |
| 2026-04-21 05:52 | 3.82792 | -76.24889 | 16715 ft | 343 kts | 186° |
| 2026-04-21 05:52 | 3.80328 | -76.25129 | 16292 ft | 341 kts | 186° |
| 2026-04-21 05:52 | 3.77876 | -76.25367 | 15863 ft | 340 kts | 186° |
| 2026-04-21 05:53 | 3.75497 | -76.25598 | 15449 ft | 338 kts | 186° |
| 2026-04-21 05:53 | 3.73157 | -76.25826 | 15036 ft | 337 kts | 186° |
| 2026-04-21 05:53 | 3.70826 | -76.26054 | 14631 ft | 336 kts | 186° |
| 2026-04-21 05:53 | 3.68511 | -76.26280 | 14233 ft | 335 kts | 186° |
| 2026-04-21 05:54 | 3.66095 | -76.26523 | 13793 ft | 334 kts | 187° |
| 2026-04-21 05:54 | 3.63791 | -76.26792 | 13359 ft | 332 kts | 188° |
| 2026-04-21 05:54 | 3.61510 | -76.27080 | 12952 ft | 329 kts | 188° |
| 2026-04-21 05:54 | 3.59247 | -76.27374 | 12541 ft | 327 kts | 188° |
| 2026-04-21 05:55 | 3.56996 | -76.27666 | 12135 ft | 325 kts | 188° |
| 2026-04-21 05:55 | 3.54763 | -76.27952 | 11722 ft | 323 kts | 188° |
| 2026-04-21 05:55 | 3.52512 | -76.28237 | 11388 ft | 318 kts | 187° |
| 2026-04-21 05:55 | 3.50358 | -76.28508 | 11240 ft | 307 kts | 187° |
| 2026-04-21 05:56 | 3.48239 | -76.28892 | 10889 ft | 304 kts | 193° |
| 2026-04-21 05:56 | 3.46174 | -76.29350 | 10506 ft | 303 kts | 193° |
| 2026-04-21 05:56 | 3.44124 | -76.29805 | 10128 ft | 301 kts | 193° |
| 2026-04-21 05:56 | 3.42053 | -76.30266 | 9737 ft | 299 kts | 193° |
| 2026-04-21 05:57 | 3.40017 | -76.30716 | 9133 ft | 302 kts | 192° |
| 2026-04-21 05:57 | 3.38009 | -76.31158 | 8783 ft | 286 kts | 192° |
| 2026-04-21 05:57 | 3.36115 | -76.31574 | 8623 ft | 265 kts | 193° |
| 2026-04-21 05:57 | 3.34487 | -76.32208 | 8484 ft | 242 kts | 218° |
| 2026-04-21 05:58 | 3.33482 | -76.33444 | 8380 ft | 220 kts | 249° |
| 2026-04-21 05:58 | 3.33226 | -76.34899 | 8232 ft | 207 kts | 275° |
| 2026-04-21 05:58 | 3.33679 | -76.36290 | 7762 ft | 210 kts | 301° |
| 2026-04-21 05:58 | 3.34420 | -76.37528 | 7381 ft | 205 kts | 301° |
| 2026-04-21 05:59 | 3.35127 | -76.38742 | 7058 ft | 199 kts | 300° |
| 2026-04-21 05:59 | 3.35857 | -76.39892 | 6744 ft | 189 kts | 312° |
| 2026-04-21 05:59 | 3.36894 | -76.40673 | 6263 ft | 190 kts | 336° |
| 2026-04-21 06:00 | 3.39340 | -76.40776 | 5849 ft | 167 kts | 10° |
| 2026-04-21 06:00 | 3.40458 | -76.40578 | 5624 ft | 156 kts | 10° |
| 2026-04-21 06:00 | 3.41525 | -76.40390 | 5424 ft | 156 kts | 10° |
| 2026-04-21 06:00 | 3.42590 | -76.40205 | 5232 ft | 155 kts | 10° |
| 2026-04-21 06:01 | 3.43652 | -76.40020 | 5038 ft | 155 kts | 10° |
| 2026-04-21 06:01 | 3.44710 | -76.39836 | 4855 ft | 154 kts | 10° |
| 2026-04-21 06:01 | 3.45435 | -76.39711 | 4703 ft | 153 kts | 10° |
| 2026-04-21 06:01 | 3.46478 | -76.39529 | 4516 ft | 152 kts | 9° |
| 2026-04-21 06:02 | 3.47528 | -76.39347 | 4315 ft | 151 kts | 9° |
| 2026-04-21 06:02 | 3.48557 | -76.39169 | 4123 ft | 149 kts | 9° |
| 2026-04-21 06:02 | 3.49574 | -76.38992 | 3909 ft | 148 kts | 9° |
| 2026-04-21 06:02 | 3.50585 | -76.38817 | 3700 ft | 147 kts | 10° |
| 2026-04-21 06:03 | 3.51592 | -76.38642 | 3499 ft | 147 kts | 10° |
| 2026-04-21 06:03 | 3.52593 | -76.38462 | 3263 ft | 146 kts | 11° |
| 2026-04-21 06:03 | 3.53593 | -76.38288 | 3167 ft | 141 kts | 10° |
| 2026-04-21 06:03 | 3.54413 | -76.38149 | 3165 ft | 90 kts | 8° |
| 2026-04-21 06:04 | 3.54836 | -76.38074 | 3164 ft | 43 kts | 10° |
| 2026-04-21 06:04 | 3.55044 | -76.38042 | 3167 ft | 12 kts | 5° |
| 2026-04-21 06:04 | 3.55099 | -76.38086 | 3168 ft | 10 kts | 282° |
| 2026-04-21 06:04 | 3.55109 | -76.38141 | 3169 ft | 7 kts | 280° |
| 2026-04-21 06:05 | 3.55110 | -76.38179 | 3169 ft | 4 kts | 255° |
| 2026-04-21 06:05 | 3.55081 | -76.38200 | 3169 ft | 11 kts | 195° |
| 2026-04-21 06:05 | 3.54948 | -76.38225 | 3168 ft | 24 kts | 189° |
| 2026-04-21 06:05 | 3.54777 | -76.38253 | 3167 ft | 25 kts | 189° |
| 2026-04-21 06:06 | 3.54597 | -76.38283 | 3166 ft | 27 kts | 189° |
| 2026-04-21 06:06 | 3.54406 | -76.38317 | 3166 ft | 28 kts | 191° |
| 2026-04-21 06:06 | 3.54210 | -76.38350 | 3164 ft | 24 kts | 190° |
| 2026-04-21 06:06 | 3.54056 | -76.38378 | 3164 ft | 23 kts | 190° |
| 2026-04-21 06:07 | 3.53896 | -76.38405 | 3163 ft | 25 kts | 191° |
| 2026-04-21 06:07 | 3.53713 | -76.38438 | 3162 ft | 28 kts | 189° |
| 2026-04-21 06:07 | 3.53569 | -76.38465 | 3162 ft | 13 kts | 201° |
| 2026-04-21 06:07 | 3.53560 | -76.38515 | 3162 ft | 11 kts | 289° |
| 2026-04-21 06:08 | 3.53597 | -76.38545 | 3163 ft | 3 kts | 277° |
| 2026-04-21 06:08 | 3.53602 | -76.38588 | 3162 ft | 9 kts | 278° |
| 2026-04-21 06:08 | 3.53607 | -76.38617 | 3162 ft | 2 kts | 279° |
| 2026-04-21 06:08 | 3.53607 | -76.38618 | 3162 ft | 0 kts | 279° |